Time;durP1;ratioP1;P1;durP2;ratioP2;P2;SDS_P1;SDS_P2;PMS_P1;PMS_P2;Temp;Humidity;BMP_temperature;BMP_pressure;BME280_temperature;BME280_humidity;BME280_pressure;Samples;Min_cycle;Max_cycle;Signal;HPM_P1;HPM_P2
2022/12/25 00:01:20;;;;;;;10.88;7.45;;;17.70;73.90;;;18.99;40.42;98821.56;5029358;28;20045;-78
2022/12/25 00:03:49;;;;;;;11.60;7.05;;;17.70;73.70;;;18.95;40.47;98823.34;5024142;28;20438;-77
2022/12/25 00:06:15;;;;;;;11.50;7.00;;;17.70;73.50;;;18.93;40.68;98820.13;5019121;28;20120;-77
2022/12/25 00:08:42;;;;;;;14.90;7.00;;;17.70;74.00;;;18.98;40.47;98816.38;5014864;28;20063;-77
2022/12/25 00:11:14;;;;;;;9.52;6.72;;;17.70;74.10;;;18.93;40.00;98822.03;5048210;28;20045;-77
2022/12/25 00:13:40;;;;;;;13.10;7.70;;;17.70;73.70;;;18.97;40.38;98814.78;5013457;28;20087;-77
2022/12/25 00:16:12;;;;;;;9.65;6.57;;;17.70;73.70;;;18.94;40.47;98809.94;5030453;28;20066;-77
2022/12/25 00:18:38;;;;;;;12.48;6.85;;;17.70;73.70;;;18.94;40.40;98823.69;5030194;28;20044;-77
2022/12/25 00:21:05;;;;;;;10.88;6.57;;;17.70;73.50;;;18.94;40.48;98820.94;5015106;28;20041;-77
2022/12/25 00:23:31;;;;;;;9.15;6.55;;;17.70;73.80;;;18.96;40.52;98818.66;5047006;28;20048;-77
2022/12/25 00:25:58;;;;;;;14.38;6.78;;;17.70;74.00;;;18.96;40.71;98821.41;5030955;28;20037;-77
2022/12/25 00:28:24;;;;;;;10.95;6.78;;;17.60;74.20;;;18.94;40.51;98821.72;5017250;28;20033;-77
2022/12/25 00:30:50;;;;;;;11.65;7.28;;;17.70;73.90;;;18.90;40.40;98842.75;5019847;28;20074;-77
2022/12/25 00:33:17;;;;;;;11.38;7.38;;;17.70;73.80;;;18.96;40.37;98832.41;5016074;28;20041;-77
2022/12/25 00:35:43;;;;;;;9.65;6.68;;;17.60;73.70;;;18.93;40.22;98838.53;5012663;28;20044;-77
2022/12/25 00:38:09;;;;;;;10.18;6.35;;;17.70;73.70;;;18.92;40.54;98845.19;5030580;28;20060;-77
2022/12/25 00:40:42;;;;;;;11.40;6.57;;;17.70;73.90;;;18.96;40.72;98843.41;5017240;28;20041;-77
2022/12/25 00:43:08;;;;;;;11.80;6.88;;;17.60;74.00;;;18.92;40.49;98850.69;5016986;28;20040;-78
2022/12/25 00:45:35;;;;;;;8.60;6.20;;;17.70;73.90;;;18.89;40.35;98851.34;5050348;28;20048;-78
2022/12/25 00:48:01;;;;;;;8.13;6.40;;;17.70;73.50;;;18.93;40.25;98861.34;5040817;28;20040;-78
2022/12/25 00:50:27;;;;;;;9.15;6.38;;;17.70;73.60;;;18.89;40.33;98859.59;5035581;28;20045;-78
2022/12/25 00:52:53;;;;;;;8.38;6.18;;;17.70;73.60;;;18.90;40.62;98872.19;5023243;28;20089;-78
2022/12/25 00:55:19;;;;;;;11.15;6.72;;;17.60;73.70;;;18.93;40.71;98880.59;5050778;28;20043;-78
2022/12/25 00:57:45;;;;;;;11.52;6.68;;;17.70;73.90;;;18.86;40.80;98885.78;5038253;28;20042;-78
2022/12/25 01:00:12;;;;;;;9.38;5.97;;;17.70;74.10;;;18.86;40.44;98903.06;5036419;28;20044;-78
2022/12/25 01:02:38;;;;;;;8.70;5.85;;;17.70;73.80;;;18.89;40.47;98898.88;5035168;28;20048;-78
2022/12/25 01:05:05;;;;;;;10.63;6.57;;;17.70;73.70;;;18.92;40.34;98895.47;5047504;28;20120;-78
2022/12/25 01:07:31;;;;;;;13.70;7.05;;;17.60;73.60;;;18.89;40.34;98896.13;5035421;28;20527;-78
2022/12/25 01:12:43;;;;;;;10.38;6.53;;;17.60;73.80;;;18.82;40.38;98907.59;5030647;28;20048;-78
2022/12/25 01:15:10;;;;;;;12.88;6.75;;;17.60;74.00;;;18.88;40.67;98916.50;5052178;28;20127;-78
2022/12/25 01:17:36;;;;;;;12.20;6.93;;;17.60;74.00;;;18.84;40.38;98927.31;5037254;28;20083;-78
2022/12/25 01:20:02;;;;;;;9.35;6.22;;;17.60;73.70;;;18.83;40.52;98925.72;5030675;28;20149;-78
2022/12/25 01:22:28;;;;;;;10.25;6.78;;;17.60;73.70;;;18.84;40.46;98921.81;5033954;28;20048;-78
2022/12/25 01:24:55;;;;;;;10.95;6.03;;;17.60;73.40;;;18.84;40.60;98921.81;5022028;28;20060;-78
2022/12/25 01:27:20;;;;;;;11.98;7.13;;;17.70;73.60;;;18.81;40.63;98914.25;5007552;28;20841;-78
2022/12/25 01:29:47;;;;;;;9.70;5.80;;;17.60;73.70;;;18.86;40.75;98914.06;5053426;28;20040;-78
2022/12/25 01:32:13;;;;;;;7.68;6.20;;;17.60;74.00;;;18.81;40.65;98927.19;5050907;28;20500;-78
2022/12/25 01:34:39;;;;;;;10.07;6.70;;;17.60;73.70;;;18.80;40.65;98926.38;5050422;28;20127;-78
2022/12/25 01:37:06;;;;;;;8.27;5.93;;;17.60;73.70;;;18.84;40.29;98927.31;5032659;28;20048;-78
2022/12/25 01:39:32;;;;;;;10.00;6.90;;;17.60;74.30;;;18.83;40.38;98936.72;5017845;28;20057;-78
2022/12/25 01:41:58;;;;;;;9.85;5.78;;;17.60;73.50;;;18.83;40.64;98933.97;5033620;28;20040;-78
2022/12/25 01:44:36;;;;;;;8.90;6.10;;;17.60;73.60;;;18.79;40.72;98930.22;5020414;28;20358;-78
2022/12/25 01:47:03;;;;;;;12.18;5.35;;;17.60;73.70;;;18.78;40.73;98934.13;5067393;28;20040;-78
2022/12/25 01:49:29;;;;;;;10.13;6.28;;;17.60;73.90;;;18.81;40.46;98938.16;5051918;28;20040;-78
2022/12/25 01:52:02;;;;;;;11.35;7.07;;;17.60;73.60;;;18.80;40.42;98939.28;5020323;28;20052;-78
2022/12/25 01:54:43;;;;;;;10.25;6.70;;;17.60;73.50;;;18.76;40.54;98930.88;5054437;28;20040;-78
2022/12/25 01:57:15;;;;;;;8.87;6.27;;;17.60;73.30;;;18.80;40.68;98926.38;5030710;28;20475;-77
2022/12/25 01:59:42;;;;;;;10.77;5.57;;;17.60;73.40;;;18.78;40.72;98922.34;5046375;28;20036;-77
2022/12/25 02:02:08;;;;;;;9.43;6.25;;;17.60;73.90;;;18.81;40.86;98927.19;5027106;28;20128;-78
2022/12/25 02:05:25;;;;;;;9.18;5.93;;;17.60;73.90;;;18.77;40.53;98938.00;5014738;28;20476;-78
2022/12/25 02:07:51;;;;;;;9.98;6.47;;;17.60;73.60;;;18.77;39.95;98951.72;5037716;28;20106;-77
2022/12/25 02:10:18;;;;;;;11.60;6.82;;;17.60;73.40;;;18.81;40.32;98951.91;5012609;28;20811;-77
2022/12/25 02:12:44;;;;;;;10.55;6.65;;;17.60;73.40;;;18.76;40.35;98955.63;5047195;28;20044;-77
2022/12/25 02:15:14;;;;;;;10.20;6.25;;;17.60;73.40;;;18.78;40.83;98953.38;5016490;28;20040;-77
2022/12/25 02:17:50;;;;;;;10.48;6.60;;;17.60;73.70;;;18.76;40.74;98965.81;5026803;28;20485;-77
2022/12/25 02:20:42;;;;;;;10.13;6.47;;;17.60;74.00;;;18.72;40.69;98962.84;5046139;28;20041;-78
2022/12/25 02:23:13;;;;;;;;;;;17.60;73.80;;;18.70;40.61;98967.06;5027199;28;20525;-77
2022/12/25 02:25:58;;;;;;;7.82;5.57;;;17.60;73.70;;;18.73;40.64;98969.97;5032884;28;20253;-77
2022/12/25 02:28:47;;;;;;;8.05;5.50;;;17.60;73.70;;;18.74;40.37;98976.28;5047899;28;20044;-78
2022/12/25 02:32:01;;;;;;;8.95;6.45;;;17.60;73.40;;;18.73;40.88;98972.72;5041053;28;20044;-78
2022/12/25 02:34:51;;;;;;;7.55;5.10;;;17.60;73.80;;;18.71;40.84;98975.00;5023917;28;20080;-78
2022/12/25 02:37:27;;;;;;;8.10;6.07;;;17.60;74.10;;;18.75;40.51;98977.88;5045942;28;20036;-78
2022/12/25 02:39:58;;;;;;;8.85;5.45;;;17.60;73.70;;;18.76;40.41;98983.09;5059048;28;20385;-77
2022/12/25 03:08:03;;;;;;;10.70;5.75;;;17.60;73.80;;;18.69;40.73;98979.19;5033754;28;20641;-77
2022/12/25 03:13:18;;;;;;;8.50;5.82;;;17.60;73.40;;;18.68;40.47;98981.13;5033844;28;20033;-77
2022/12/25 03:18:30;;;;;;;9.80;6.05;;;17.50;73.40;;;18.69;40.89;98979.19;5036034;28;20048;-77
2022/12/25 03:31:10;;;;;;;7.13;5.25;;;17.50;73.60;;;18.63;40.74;98979.34;5036142;28;20491;-77
2022/12/25 03:32:17;;;;;;;10.05;6.53;;;17.60;73.40;;;18.58;40.46;98982.25;5050692;28;20059;-77
2022/12/25 03:35:22;;;;;;;11.13;5.05;;;17.60;73.30;;;18.63;40.63;98995.84;5035026;28;20504;-77
2022/12/25 04:37:24;;;;;;;7.03;5.03;;;17.40;72.40;;;18.62;39.84;99046.44;5036402;28;20048;-78
2022/12/25 04:39:51;;;;;;;8.95;5.30;;;17.40;72.30;;;18.62;40.35;99045.59;5032883;28;20451;-78
2022/12/25 04:42:17;;;;;;;7.47;4.82;;;17.50;72.60;;;18.52;40.52;99041.25;5030065;28;20047;-78
2022/12/25 04:44:43;;;;;;;9.07;5.72;;;17.50;72.90;;;18.52;40.61;99045.91;5047552;28;20388;-78
2022/12/25 04:47:09;;;;;;;7.15;5.25;;;17.50;73.10;;;18.52;40.10;99051.41;5018280;28;20053;-77
2022/12/25 04:49:36;;;;;;;7.35;5.93;;;17.50;72.60;;;18.59;39.77;99049.00;5031891;28;20515;-78
2022/12/25 04:52:02;;;;;;;7.45;5.75;;;17.40;72.40;;;18.58;39.43;99056.44;5030888;28;20041;-78
2022/12/25 04:54:28;;;;;;;9.48;5.68;;;17.40;72.20;;;18.55;39.84;99053.53;4998494;28;20044;-78
2022/12/25 04:56:54;;;;;;;9.60;6.07;;;17.50;72.00;;;18.54;40.29;99065.63;5016649;28;20047;-77
2022/12/25 04:59:20;;;;;;;12.30;6.40;;;17.40;72.70;;;18.51;40.15;99058.84;5027763;28;20047;-77
2022/12/25 05:01:46;;;;;;;9.35;5.95;;;17.50;72.80;;;18.49;40.27;99058.34;5016430;28;20044;-77
2022/12/25 05:04:13;;;;;;;8.45;5.68;;;17.50;73.00;;;18.54;39.66;99060.13;5028816;28;20140;-77
2022/12/25 05:06:39;;;;;;;7.85;5.32;;;17.40;72.30;;;18.55;39.85;99057.09;5005659;28;20037;-77
2022/12/25 05:09:05;;;;;;;10.75;6.78;;;17.40;72.40;;;18.56;39.59;99053.19;5045296;28;20492;-77
2022/12/25 05:11:31;;;;;;;8.32;5.50;;;17.30;72.20;;;18.51;39.61;99060.78;5028099;28;20472;-77
2022/12/25 05:13:58;;;;;;;9.07;5.97;;;17.40;71.90;;;18.50;39.95;99054.47;5034789;28;20049;-77
2022/12/25 05:16:25;;;;;;;9.50;5.93;;;17.50;72.60;;;18.44;40.34;99048.34;5046504;28;20095;-77
2022/12/25 05:18:51;;;;;;;9.90;4.95;;;17.40;72.80;;;18.52;39.85;99046.75;5030259;28;20032;-77
2022/12/25 05:21:17;;;;;;;9.77;5.80;;;17.40;72.50;;;18.55;39.47;99048.03;5014972;28;20032;-77
2022/12/25 05:23:50;;;;;;;7.88;5.32;;;17.40;72.30;;;18.55;39.63;99045.28;5030660;28;20393;-77
2022/12/25 05:26:18;;;;;;;11.38;6.40;;;17.40;72.20;;;18.51;39.65;99042.34;5034807;28;20047;-77
2022/12/25 05:28:45;;;;;;;11.13;5.68;;;17.50;72.00;;;18.48;39.87;99055.94;5028619;28;20091;-77
2022/12/25 05:31:11;;;;;;;7.82;5.13;;;17.40;72.00;;;18.43;40.13;99063.19;5046420;28;20768;-77
2022/12/25 05:33:37;;;;;;;7.15;5.20;;;17.40;72.50;;;18.43;40.21;99054.13;5030396;28;20040;-77
2022/12/25 05:36:05;;;;;;;8.32;5.65;;;17.40;72.70;;;18.45;39.89;99054.63;5047696;28;20054;-77
2022/12/25 05:38:32;;;;;;;7.32;5.10;;;17.40;72.20;;;18.50;39.74;99059.19;5029011;28;20048;-77
2022/12/25 05:40:57;;;;;;;6.55;5.22;;;17.30;72.20;;;18.56;39.55;99061.44;5034096;28;20036;-76
2022/12/25 05:43:24;;;;;;;7.88;5.15;;;17.30;72.10;;;18.51;39.53;99077.25;5028268;28;20098;-76
2022/12/25 05:45:50;;;;;;;7.32;5.53;;;17.40;71.90;;;18.49;39.79;99085.81;5030834;28;20055;-76
2022/12/25 05:48:16;;;;;;;6.35;4.95;;;17.40;72.40;;;18.43;40.36;99081.59;5041153;28;20040;-76
2022/12/25 05:50:42;;;;;;;10.02;6.22;;;17.40;72.60;;;18.44;40.03;99084.03;5015970;28;20471;-77
2022/12/25 05:53:11;;;;;;;7.03;5.60;;;17.40;72.60;;;18.34;40.00;99095.31;5002157;28;20114;-76
2022/12/25 05:55:38;;;;;;;10.35;5.47;;;17.40;72.30;;;18.36;39.93;99087.56;5017724;28;20048;-76
2022/12/25 05:58:06;;;;;;;9.85;6.13;;;17.40;72.00;;;18.34;40.21;99099.97;5027246;28;20041;-78
2022/12/25 06:00:32;;;;;;;8.60;5.57;;;17.50;72.00;;;18.32;40.18;99102.22;5046266;28;20049;-78
2022/12/25 06:02:58;;;;;;;5.97;5.15;;;17.50;72.00;;;18.37;40.43;99110.34;5029536;28;20033;-78
2022/12/25 06:05:24;;;;;;;8.30;5.32;;;17.50;72.30;;;18.37;40.35;99107.59;5033424;28;20575;-78
2022/12/25 06:07:50;;;;;;;10.00;5.32;;;17.40;72.50;;;18.36;40.27;99103.22;5030504;28;20041;-78
2022/12/25 06:10:16;;;;;;;7.00;5.60;;;17.40;72.60;;;18.32;40.25;99103.06;5046834;28;20046;-77
2022/12/25 06:12:42;;;;;;;8.38;5.55;;;17.40;72.20;;;18.30;40.31;99096.25;5018862;28;20040;-77
2022/12/25 06:15:08;;;;;;;8.82;5.10;;;17.40;72.00;;;18.29;40.25;99095.44;5045233;28;20117;-78
2022/12/25 06:17:35;;;;;;;8.52;5.25;;;17.40;71.90;;;18.27;40.07;99096.88;5034872;28;20040;-78
2022/12/25 06:20:01;;;;;;;6.97;5.05;;;17.40;71.90;;;18.35;40.58;99098.88;5028542;28;20522;-77
2022/12/25 06:22:31;;;;;;;8.40;5.25;;;17.50;72.50;;;18.38;40.37;99112.75;5018184;28;20444;-78
2022/12/25 06:24:57;;;;;;;7.53;5.13;;;17.40;72.70;;;18.36;40.24;99125.19;5029352;28;20044;-78
2022/12/25 06:27:24;;;;;;;7.53;5.47;;;17.40;72.50;;;18.28;40.38;99123.22;5016594;28;20040;-77
2022/12/25 06:29:50;;;;;;;6.75;4.82;;;17.40;72.30;;;18.30;40.31;99127.28;5015260;28;20042;-77
2022/12/25 06:32:16;;;;;;;7.68;5.30;;;17.40;73.10;;;18.28;40.14;99135.00;5013475;28;20033;-78
2022/12/25 06:34:42;;;;;;;8.25;5.63;;;17.40;72.10;;;18.33;40.38;99142.31;5045203;28;20487;-78
2022/12/25 06:37:09;;;;;;;6.97;5.43;;;17.40;72.40;;;18.33;40.52;99145.06;5046537;28;20045;-77
2022/12/25 06:39:35;;;;;;;6.93;5.10;;;17.40;72.60;;;18.34;40.71;99144.75;5016853;28;20051;-78
2022/12/25 06:42:01;;;;;;;8.38;5.43;;;17.40;72.90;;;18.25;40.41;99146.63;4997608;28;20032;-77
2022/12/25 06:44:27;;;;;;;8.05;4.95;;;17.40;72.50;;;18.28;40.27;99147.94;5038401;28;20037;-77
2022/12/25 06:46:53;;;;;;;6.75;5.35;;;17.40;72.40;;;18.25;40.42;99154.88;5026607;28;20052;-78
2022/12/25 06:49:20;;;;;;;7.60;5.70;;;17.40;72.20;;;18.23;40.40;99160.66;5049860;28;20048;-78
2022/12/25 06:51:46;;;;;;;5.97;5.10;;;17.40;72.00;;;18.30;40.86;99168.47;5036123;28;20051;-78
2022/12/25 06:54:12;;;;;;;9.65;6.10;;;17.40;72.70;;;18.34;40.67;99174.13;5066828;28;20037;-78
2022/12/25 06:56:38;;;;;;;11.10;6.00;;;17.30;73.00;;;18.27;40.50;99177.34;5039389;28;20044;-78
2022/12/25 06:59:07;;;;;;;6.85;4.68;;;17.30;73.00;;;18.21;40.65;99184.88;5033087;28;20041;-78
2022/12/25 07:01:40;;;;;;;6.57;5.13;;;17.30;72.60;;;18.20;40.42;99186.03;5030344;28;20043;-78
2022/12/25 07:04:12;;;;;;;10.30;6.32;;;17.40;72.40;;;18.20;40.53;99194.25;5034939;28;20456;-78
2022/12/25 07:06:39;;;;;;;7.95;5.00;;;17.40;72.20;;;18.20;40.71;99201.69;5033814;28;20049;-78
2022/12/25 07:09:05;;;;;;;7.57;4.85;;;17.40;72.50;;;18.26;40.83;99205.09;5021172;28;20566;-78
2022/12/25 07:11:31;;;;;;;8.75;6.22;;;17.30;72.70;;;18.28;40.62;99200.91;5022066;28;20052;-78
2022/12/25 07:13:57;;;;;;;7.38;5.57;;;17.40;73.10;;;18.25;40.60;99207.03;5014979;28;20043;-78
2022/12/25 07:16:23;;;;;;;8.63;5.82;;;17.30;72.60;;;18.19;40.64;99211.88;5035485;28;20127;-78
2022/12/25 07:18:50;;;;;;;7.03;5.47;;;17.30;72.50;;;18.15;40.83;99221.03;5020310;28;20117;-78
2022/12/25 07:21:18;;;;;;;8.35;5.28;;;17.30;72.40;;;18.16;40.40;99225.41;5038208;28;20037;-78
2022/12/25 07:23:45;;;;;;;8.23;5.55;;;17.30;72.30;;;18.21;40.82;99233.50;5025851;28;20083;-78
2022/12/25 07:26:11;;;;;;;6.13;4.82;;;17.30;72.80;;;18.22;40.75;99235.94;5036067;28;20045;-78
2022/12/25 07:28:38;;;;;;;7.20;4.63;;;17.20;73.20;;;18.29;40.85;99232.72;5022619;28;20124;-78
2022/12/25 07:31:12;;;;;;;8.77;5.32;;;17.20;73.40;;;18.22;40.48;99248.88;5036574;28;20036;-78
2022/12/25 07:33:38;;;;;;;7.50;4.75;;;17.20;72.90;;;18.17;40.53;99249.00;5037290;28;20045;-78
2022/12/25 07:36:06;;;;;;;6.30;5.05;;;17.20;72.70;;;18.18;40.52;99254.16;5032037;28;20041;-78
2022/12/25 07:38:33;;;;;;;7.10;4.90;;;17.20;72.60;;;18.16;40.54;99259.16;5021210;28;20495;-78
2022/12/25 07:40:59;;;;;;;6.93;5.05;;;17.20;72.50;;;18.20;40.97;99257.41;5053623;28;20051;-78
2022/12/25 07:43:25;;;;;;;7.32;4.68;;;17.20;73.20;;;18.30;40.79;99267.31;5019628;28;20048;-79
2022/12/25 07:45:59;;;;;;;7.72;4.78;;;17.20;73.40;;;18.27;40.53;99256.16;5018313;28;20049;-79
2022/12/25 07:48:26;;;;;;;8.35;5.45;;;17.20;73.00;;;18.23;41.02;99266.94;5022260;28;20089;-79
2022/12/25 07:50:58;;;;;;;10.73;5.57;;;17.20;72.70;;;18.22;40.35;99257.91;5018281;28;20037;-79
2022/12/25 07:53:24;;;;;;;7.15;5.18;;;17.20;72.60;;;18.19;40.58;99263.19;5028042;28;20048;-78
2022/12/25 07:55:59;;;;;;;8.20;5.28;;;17.20;72.50;;;18.24;40.17;99257.56;5010080;28;20040;-78
2022/12/25 07:58:25;;;;;;;7.03;5.07;;;17.20;72.20;;;18.25;39.85;99267.47;5030057;28;20184;-78
2022/12/25 08:00:52;;;;;;;10.68;4.90;;;17.10;72.00;;;18.22;39.58;99265.34;5036455;28;20120;-78
2022/12/25 08:03:18;;;;;;;8.90;5.72;;;17.10;71.90;;;18.21;39.71;99266.44;5022736;28;20053;-78
2022/12/25 08:05:44;;;;;;;9.77;5.53;;;17.10;71.80;;;18.21;39.53;99260.97;5018051;28;20522;-78
2022/12/25 08:08:10;;;;;;;7.30;5.40;;;17.10;71.70;;;18.19;39.31;99257.72;5035916;28;20143;-78
2022/12/25 08:10:38;;;;;;;7.82;5.43;;;17.00;71.50;;;18.20;39.32;99264.84;5037061;28;20098;-79
2022/12/25 08:13:04;;;;;;;7.97;5.18;;;17.10;71.60;;;18.26;39.59;99260.03;5035652;28;20044;-78
2022/12/25 08:15:30;;;;;;;7.30;5.10;;;17.10;71.90;;;18.26;39.86;99266.31;5023054;28;20046;-78
2022/12/25 08:17:56;;;;;;;6.80;4.90;;;17.10;72.30;;;18.24;39.73;99274.06;5038910;28;20037;-78
2022/12/25 08:20:22;;;;;;;5.63;4.53;;;17.10;72.20;;;18.18;39.89;99262.41;5048522;28;20041;-78
2022/12/25 08:22:49;;;;;;;7.68;5.28;;;17.10;72.10;;;18.18;40.11;99264.34;5031679;28;20045;-78
2022/12/25 08:25:15;;;;;;;8.38;5.50;;;17.10;72.00;;;18.18;39.80;99269.81;5054541;28;20046;-78
2022/12/25 08:27:41;;;;;;;7.28;4.93;;;17.10;72.00;;;18.22;40.03;99268.09;5035355;28;20480;-78
2022/12/25 08:30:08;;;;;;;10.65;4.38;;;17.20;72.30;;;18.29;40.09;99275.88;5053796;28;20729;-78
2022/12/25 08:32:34;;;;;;;9.10;5.10;;;17.10;72.60;;;18.30;40.12;99270.06;5047260;28;20048;-78
2022/12/25 08:35:00;;;;;;;12.05;5.47;;;17.10;72.60;;;18.24;40.09;99271.31;5017959;28;20382;-77
2022/12/25 08:37:29;;;;;;;8.40;5.05;;;17.10;72.40;;;18.22;40.05;99273.59;5034212;28;20094;-78
2022/12/25 08:39:55;;;;;;;12.98;6.55;;;17.10;72.50;;;18.20;40.18;99271.13;5017038;28;20049;-78
2022/12/25 08:42:21;;;;;;;7.47;5.38;;;17.10;72.30;;;18.23;40.07;99265.00;5047514;28;20116;-78
2022/12/25 08:44:48;;;;;;;8.30;5.22;;;17.20;72.20;;;18.27;40.36;99265.22;5009438;28;20033;-78
2022/12/25 08:47:14;;;;;;;8.23;5.40;;;17.20;72.60;;;18.33;40.19;99266.69;5009265;28;20047;-78
2022/12/25 08:49:40;;;;;;;7.38;5.32;;;17.20;72.70;;;18.35;40.42;99261.72;5027179;28;20066;-78
2022/12/25 08:52:06;;;;;;;7.30;5.38;;;17.10;73.00;;;18.27;40.06;99253.41;5012901;28;20029;-78
2022/12/25 08:54:35;;;;;;;5.50;4.70;;;17.10;72.60;;;18.25;40.53;99252.91;5019870;28;20037;-77
2022/12/25 08:57:04;;;;;;;7.38;4.65;;;17.10;72.50;;;18.26;40.20;99247.09;5045044;28;20658;-77
2022/12/25 08:59:30;;;;;;;6.70;5.05;;;17.10;72.60;;;18.26;39.99;99251.78;5045371;28;20650;-78
2022/12/25 09:01:56;;;;;;;7.80;5.00;;;17.10;72.50;;;18.36;40.24;99255.06;5046316;28;20048;-78
2022/12/25 09:04:23;;;;;;;8.45;5.18;;;17.10;73.00;;;18.40;40.16;99269.81;5031856;28;20511;-78
2022/12/25 09:06:49;;;;;;;10.63;6.03;;;17.20;73.10;;;18.38;40.02;99277.56;5045716;28;20068;-78
2022/12/25 09:09:16;;;;;;;7.20;5.00;;;17.20;72.60;;;18.31;40.25;99277.19;5044850;28;20036;-78
2022/12/25 09:11:42;;;;;;;7.40;5.25;;;17.20;72.60;;;18.31;40.06;99284.59;5031008;28;20052;-77
2022/12/25 09:14:08;;;;;;;5.38;4.30;;;17.20;72.60;;;18.29;39.98;99284.09;5001434;28;20043;-77
2022/12/25 09:16:34;;;;;;;10.35;4.32;;;17.20;72.50;;;18.32;40.27;99288.97;5034358;28;20132;-77
2022/12/25 09:19:01;;;;;;;9.65;5.47;;;17.20;72.60;;;18.42;40.13;99283.25;5030915;28;20040;-78
2022/12/25 09:21:27;;;;;;;8.23;5.50;;;17.30;72.90;;;18.41;40.06;99281.59;5030734;28;20063;-77
2022/12/25 09:23:53;;;;;;;7.78;4.90;;;17.30;72.90;;;18.35;40.07;99278.19;5045974;28;20514;-78
2022/12/25 09:26:19;;;;;;;8.88;5.13;;;17.30;72.60;;;18.31;40.23;99292.84;5027744;28;20045;-78
2022/12/25 09:28:45;;;;;;;7.53;4.88;;;17.30;72.60;;;18.35;40.14;99291.13;5033806;28;20040;-78
2022/12/25 09:31:11;;;;;;;6.70;4.57;;;17.20;73.30;;;18.35;40.07;99289.16;5048085;28;20043;-78
2022/12/25 09:33:38;;;;;;;8.13;5.43;;;17.20;72.60;;;18.42;40.28;99294.22;5017568;28;20042;-78
2022/12/25 09:36:06;;;;;;;6.45;4.60;;;17.20;73.10;;;18.48;40.11;99295.72;5047188;28;20041;-78
2022/12/25 09:38:33;;;;;;;11.73;5.40;;;17.30;73.10;;;18.51;40.21;99297.81;5004329;28;20044;-78
2022/12/25 09:41:42;;;;;;;6.82;5.05;;;17.30;73.20;;;18.40;40.05;99302.78;5026725;28;20060;-78
2022/12/25 09:44:24;;;;;;;6.38;4.97;;;17.20;72.70;;;18.46;40.42;99299.91;5046124;28;20037;-78
2022/12/25 09:46:55;;;;;;;6.20;5.25;;;17.30;73.10;;;18.42;40.33;99306.03;5010834;28;20150;-78
2022/12/25 09:49:48;;;;;;;6.28;4.38;;;17.30;73.00;;;18.43;40.27;99304.88;5044665;28;20036;-78
2022/12/25 09:52:26;;;;;;;;;;;17.30;73.10;;;18.49;40.30;99311.06;5035006;28;20036;-78
2022/12/25 09:55:11;;;;;;;7.25;4.90;;;17.30;73.40;;;18.51;40.27;99308.00;5061204;28;19935;-78
2022/12/25 09:57:37;;;;;;;6.45;4.75;;;17.30;73.20;;;18.48;40.01;99306.69;5052753;28;20132;-78
2022/12/25 10:00:13;;;;;;;7.53;5.43;;;17.30;72.90;;;18.47;40.09;99315.25;5032497;28;20044;-78
2022/12/25 10:03:06;;;;;;;8.55;4.82;;;17.30;72.90;;;18.46;40.09;99308.94;5031235;28;20049;-78
2022/12/25 10:06:03;;;;;;;9.80;5.80;;;17.30;72.90;;;18.48;40.45;99316.88;5065120;28;20041;-78
2022/12/25 10:08:41;;;;;;;6.78;5.10;;;17.30;73.20;;;18.54;40.25;99318.38;5053139;28;20532;-78
2022/12/25 10:11:30;;;;;;;9.82;5.40;;;17.40;73.30;;;18.48;40.16;99311.38;5063789;28;20121;-78
2022/12/25 10:14:02;;;;;;;11.07;6.07;;;17.40;73.10;;;18.45;40.19;99315.56;5018044;28;20052;-78
2022/12/25 10:16:37;;;;;;;7.00;5.28;;;17.30;72.70;;;18.46;40.22;99319.13;5046385;28;20166;-77
2022/12/25 10:19:31;;;;;;;9.73;5.45;;;17.30;72.70;;;18.41;40.20;99312.63;5060273;28;20064;-78
2022/12/25 10:22:02;;;;;;;8.13;5.32;;;17.40;72.80;;;18.46;40.26;99300.69;5046708;28;20166;-78
2022/12/25 10:24:41;;;;;;;6.22;4.43;;;17.40;72.90;;;18.53;40.33;99311.25;5034379;28;20144;-78
2022/12/25 10:27:19;;;;;;;8.35;5.47;;;17.40;73.00;;;18.48;40.23;99305.91;5042838;28;20097;-78
2022/12/25 10:29:46;;;;;;;7.07;4.95;;;17.50;73.00;;;18.48;40.24;99297.66;5027061;28;20060;-78
2022/12/25 10:32:13;;;;;;;7.63;5.25;;;17.40;72.70;;;18.44;40.07;99287.31;5026747;28;20044;-78
2022/12/25 10:34:39;;;;;;;7.72;5.22;;;17.40;72.70;;;18.48;40.23;99292.16;5059354;28;20056;-78
2022/12/25 10:37:07;;;;;;;7.07;5.13;;;17.40;72.70;;;18.43;40.19;99288.41;5026754;28;20048;-78
2022/12/25 10:39:33;;;;;;;7.53;5.35;;;17.40;72.60;;;18.53;40.24;99289.28;4999684;28;20095;-78
2022/12/25 10:42:17;;;;;;;10.50;5.82;;;17.40;72.90;;;18.55;40.27;99281.53;5044258;28;20044;-78
2022/12/25 10:45:01;;;;;;;6.18;4.75;;;17.40;72.90;;;18.46;40.40;99275.19;5045331;28;20051;-78
2022/12/25 10:47:41;;;;;;;8.35;4.63;;;17.40;72.80;;;18.49;40.17;99275.34;5027613;28;20492;-77
2022/12/25 10:50:25;;;;;;;5.45;4.50;;;17.40;72.70;;;18.44;40.20;99265.31;5031694;28;20056;-78
2022/12/25 10:53:04;;;;;;;8.70;4.43;;;17.40;72.60;;;18.44;40.12;99270.81;5038715;28;20043;-78
2022/12/25 10:55:31;;;;;;;5.88;5.07;;;17.40;72.40;;;18.55;40.19;99265.06;5027543;28;20039;-78
2022/12/25 10:57:57;;;;;;;7.43;4.85;;;17.50;72.80;;;18.56;40.37;99261.19;5028105;28;20468;-78
2022/12/25 11:00:26;;;;;;;7.68;5.60;;;17.50;72.80;;;18.56;40.10;99253.75;5037116;28;20123;-78
2022/12/25 11:02:53;;;;;;;8.30;5.35;;;17.50;72.70;;;18.51;40.16;99247.56;5040575;28;20216;-77
2022/12/25 11:05:30;;;;;;;8.25;5.15;;;17.40;72.60;;;18.45;40.24;99246.91;5026202;28;20033;-78
2022/12/25 11:07:59;;;;;;;6.90;4.88;;;17.40;72.60;;;18.44;40.10;99243.34;5032095;28;20045;-78
2022/12/25 11:10:42;;;;;;;6.05;4.43;;;17.50;72.60;;;18.50;40.31;99243.22;5026802;28;20549;-78
2022/12/25 11:13:39;;;;;;;6.45;4.90;;;17.40;72.70;;;18.49;40.47;99247.06;5019693;28;20036;-79
2022/12/25 11:16:10;;;;;;;6.25;4.95;;;17.50;73.10;;;18.55;40.29;99232.09;5019003;28;20052;-79
2022/12/25 11:18:51;;;;;;;7.20;4.15;;;17.50;73.30;;;18.49;40.61;99234.16;5024054;28;20048;-79
2022/12/25 11:21:21;;;;;;;6.85;4.90;;;17.50;73.00;;;18.51;40.40;99231.09;5004064;28;20048;-79
2022/12/25 11:23:54;;;;;;;7.40;5.00;;;17.40;72.90;;;18.49;40.18;99233.34;5047353;28;20556;-79
2022/12/25 11:26:20;;;;;;;7.95;5.45;;;17.50;72.60;;;18.49;40.57;99228.66;5033701;28;20044;-78
2022/12/25 11:28:46;;;;;;;7.72;5.28;;;17.50;72.70;;;18.58;40.49;99228.72;5014070;28;20040;-78
2022/12/25 11:31:19;;;;;;;6.03;5.13;;;17.50;73.00;;;18.58;40.53;99231.44;5031083;28;20043;-78
2022/12/25 11:34:29;;;;;;;5.97;4.80;;;17.60;73.10;;;18.52;40.41;99227.19;5028053;28;20063;-77
2022/12/25 11:36:55;;;;;;;6.05;4.72;;;17.50;72.70;;;18.48;40.42;99227.03;5017131;28;20135;-77
2022/12/25 11:39:24;;;;;;;7.43;5.20;;;17.50;72.80;;;18.49;40.24;99223.16;5029386;28;20036;-78
2022/12/25 11:42:07;;;;;;;7.90;5.03;;;17.50;72.70;;;18.49;40.42;99228.66;5063957;28;20048;-78
2022/12/25 11:44:53;;;;;;;8.05;5.72;;;17.50;72.70;;;18.56;40.19;99230.94;5048549;28;20041;-77
2022/12/25 11:47:40;;;;;;;6.28;4.88;;;17.50;73.10;;;18.62;40.49;99229.69;5035232;28;20057;-77
2022/12/25 11:50:27;;;;;;;8.73;5.03;;;17.50;73.40;;;18.51;40.42;99228.34;5062174;28;20037;-77
2022/12/25 11:52:54;;;;;;;8.38;5.03;;;17.60;73.00;;;18.52;40.52;99233.53;5048177;28;20366;-78
2022/12/25 11:55:43;;;;;;;8.07;4.75;;;17.50;73.00;;;18.48;40.58;99242.72;5019817;28;20045;-77
2022/12/25 11:58:21;;;;;;;7.97;5.40;;;17.50;72.90;;;18.49;40.40;99236.09;5046841;28;20072;-78
2022/12/25 12:00:49;;;;;;;7.70;5.55;;;17.50;72.90;;;18.57;40.60;99235.31;5041569;28;20052;-77
2022/12/25 12:03:18;;;;;;;9.18;5.43;;;17.50;73.40;;;18.61;40.74;99231.63;5024960;28;20041;-78
2022/12/25 12:05:59;;;;;;;5.65;4.32;;;17.60;73.70;;;18.56;40.40;99236.44;5032005;28;20048;-77
2022/12/25 12:08:24;;;;;;;10.50;5.47;;;17.60;73.20;;;18.56;40.53;99229.00;5013164;28;20048;-77
2022/12/25 12:27:57;;;;;;;5.88;4.78;;;17.50;73.20;;;18.50;40.70;99229.47;5061908;28;20102;-77
2022/12/25 12:30:34;;;;;;;7.05;5.20;;;17.50;73.20;;;18.53;40.74;99220.59;5014239;28;20041;-77